Airfield :
LOGIN :

Register | Disclaimer

   EN    FR    IT 

 










Legend :    VFR   Marginal VFR   IFR   Intensive IFR   Very Intensive IFR
Visi :
Ceiling :
>= 8 km
>= 3000ft
5 to 8 km
1000 to 3000 ft
1500m to 5 km
500 to 1000 ft
800 to 1500m
200 to 500 ft
< 800m
< 200 ft
Symbols :   Thunderstorms  Fog  Heavy snow  Heavy precipitations  Wind > 20 kt
SIGMETs :     Misc.  Thunderstorms  Icing  Turbulence  Mountain Waves  Volcanic Ashes







- Airport Elevation : 203 ft
- IATA code : XMJ
- Download approach charts


LFBM - Mont-De-Marsan

CURRENT METAR :
  • 150500Z AUTO 09003KT 0800 R27/1100N FG VV/// 07/07 Q1021 BECMG 1500 BR NSC

EXPIRED METARs :
  • 150430Z AUTO 09003KT 0600 0500 R27/0550N FG VV/// 07/07 Q1021 BECMG 1500 BR NSC
  • 150400Z AUTO VRB02KT 0450 0400 R27/0500N FG VV/// 07/07 Q1021 BECMG 1500 BR NSC
  • 150330Z AUTO 09003KT 0400 0350 R27/0400N FG VV/// 07/07 Q1021 BECMG 1500 BR NSC
  • 150300Z AUTO 08004KT 0350 R27/0375N FG VV/// 07/07 Q1021 TEMPO 0600 FG
  • 150230Z AUTO 10002KT 0400 R27/0450N FG VV/// 08/08 Q1022 TEMPO 0600 FG

TAF TAF LFBM
Valid from the 15 at 03:00 until the 16 at 03:00 UTC


150200Z 1503/1603 28005KT 1500 BR NSC
PROB40 1503/1505 0600 FG VV///
BECMG 1509/1511 5000 RA SCT008 BKN025 OVC040
BECMG 1514/1517 9999 NSW NSC
BECMG 1520/1522 4500 RA BKN010
No reported NOTAMs for that airfield.



MET'MAP, your aeronautical weather chart ! - Copyright ORBIFLY December 2007 - Disclaimer

ORBIFLY MET'MAP TEAM :

Programming & Development : Alexandra Zaïnal
Concept & Development : Baudouin d'Aumeries
Co-Development & Prog : Marc-Olivier Méhu
Technical & hardware support : Manuel Goepfert

Contact : metmap@orbifly.com




SOURCES & CREDITS :

   NOAA